sensor_id;sensor_type;location;lat;lon;timestamp;pressure;altitude;pressure_sealevel;temperature;humidity
46111;BME280;31849;55.992;37.252;2023-08-08T00:04:56;98331.72;;;23.82;48.61
46111;BME280;31849;55.992;37.252;2023-08-08T00:09:59;98324.06;;;23.90;48.08
46111;BME280;31849;55.992;37.252;2023-08-08T00:15:07;98326.94;;;23.63;49.35
46111;BME280;31849;55.992;37.252;2023-08-08T00:20:11;98331.13;;;23.54;49.64
46111;BME280;31849;55.992;37.252;2023-08-08T00:25:14;98323.97;;;23.43;49.91
46111;BME280;31849;55.992;37.252;2023-08-08T00:30:19;98301.25;;;23.28;50.24
46111;BME280;31849;55.992;37.252;2023-08-08T00:35:23;98306.63;;;23.26;50.09
46111;BME280;31849;55.992;37.252;2023-08-08T00:40:26;98299.78;;;23.24;50.11
46111;BME280;31849;55.992;37.252;2023-08-08T00:45:31;98288.13;;;23.13;50.76
46111;BME280;31849;55.992;37.252;2023-08-08T00:50:36;98291.06;;;23.22;50.24
46111;BME280;31849;55.992;37.252;2023-08-08T00:55:40;98287.06;;;23.16;50.71
46111;BME280;31849;55.992;37.252;2023-08-08T01:00:45;98287.19;;;23.14;50.76
46111;BME280;31849;55.992;37.252;2023-08-08T01:05:57;98285.50;;;23.13;51.09
46111;BME280;31849;55.992;37.252;2023-08-08T01:11:03;98281.34;;;22.96;51.44
46111;BME280;31849;55.992;37.252;2023-08-08T01:16:09;98280.41;;;22.97;51.54
46111;BME280;31849;55.992;37.252;2023-08-08T01:21:14;98271.53;;;22.86;51.83
46111;BME280;31849;55.992;37.252;2023-08-08T01:26:20;98270.13;;;23.06;51.28
46111;BME280;31849;55.992;37.252;2023-08-08T01:31:24;98273.75;;;22.92;51.67
46111;BME280;31849;55.992;37.252;2023-08-08T01:36:32;98268.56;;;22.90;51.53
46111;BME280;31849;55.992;37.252;2023-08-08T01:41:40;98269.09;;;22.95;51.37
46111;BME280;31849;55.992;37.252;2023-08-08T01:46:45;98242.81;;;22.92;51.08
46111;BME280;31849;55.992;37.252;2023-08-08T01:51:49;98258.34;;;23.10;50.36
46111;BME280;31849;55.992;37.252;2023-08-08T01:56:55;98250.75;;;22.92;50.95
46111;BME280;31849;55.992;37.252;2023-08-08T02:01:59;98271.09;;;22.92;50.97
46111;BME280;31849;55.992;37.252;2023-08-08T02:07:03;98272.25;;;22.88;51.47
46111;BME280;31849;55.992;37.252;2023-08-08T02:12:09;98256.34;;;23.00;50.88
46111;BME280;31849;55.992;37.252;2023-08-08T02:17:12;98266.66;;;22.92;51.01
46111;BME280;31849;55.992;37.252;2023-08-08T02:22:16;98272.47;;;22.97;50.56
46111;BME280;31849;55.992;37.252;2023-08-08T02:27:21;98270.16;;;22.93;50.85
46111;BME280;31849;55.992;37.252;2023-08-08T02:32:25;98270.38;;;22.90;51.11
46111;BME280;31849;55.992;37.252;2023-08-08T02:37:28;98272.81;;;22.80;51.63
46111;BME280;31849;55.992;37.252;2023-08-08T02:42:33;98267.78;;;22.64;52.58
46111;BME280;31849;55.992;37.252;2023-08-08T02:47:37;98269.84;;;22.35;53.52
46111;BME280;31849;55.992;37.252;2023-08-08T02:52:41;98262.31;;;22.16;54.37
46111;BME280;31849;55.992;37.252;2023-08-08T02:57:46;98280.44;;;22.35;54.26
46111;BME280;31849;55.992;37.252;2023-08-08T03:02:49;98274.50;;;22.44;54.19
46111;BME280;31849;55.992;37.252;2023-08-08T03:07:53;98281.03;;;22.64;54.06
46111;BME280;31849;55.992;37.252;2023-08-08T03:12:58;98282.69;;;22.78;53.75
46111;BME280;31849;55.992;37.252;2023-08-08T03:18:02;98279.00;;;22.68;54.41
46111;BME280;31849;55.992;37.252;2023-08-08T03:23:06;98278.78;;;22.71;54.37
46111;BME280;31849;55.992;37.252;2023-08-08T03:28:11;98285.47;;;22.76;54.40
46111;BME280;31849;55.992;37.252;2023-08-08T03:33:14;98286.06;;;22.93;53.96
46111;BME280;31849;55.992;37.252;2023-08-08T03:38:18;98289.63;;;23.05;53.85
46111;BME280;31849;55.992;37.252;2023-08-08T03:43:23;98289.09;;;23.12;53.70
46111;BME280;31849;55.992;37.252;2023-08-08T03:48:27;98302.53;;;23.22;53.31
46111;BME280;31849;55.992;37.252;2023-08-08T03:53:30;98297.41;;;23.56;52.04
46111;BME280;31849;55.992;37.252;2023-08-08T03:58:37;98306.00;;;23.71;52.33
46111;BME280;31849;55.992;37.252;2023-08-08T04:03:40;98305.66;;;23.76;52.77
46111;BME280;31849;55.992;37.252;2023-08-08T04:08:44;98300.41;;;23.87;52.07
46111;BME280;31849;55.992;37.252;2023-08-08T04:13:49;98305.47;;;23.90;52.21
46111;BME280;31849;55.992;37.252;2023-08-08T04:18:53;98305.88;;;23.97;51.95
46111;BME280;31849;55.992;37.252;2023-08-08T04:23:56;98304.91;;;23.98;51.13
46111;BME280;31849;55.992;37.252;2023-08-08T04:29:01;98288.31;;;23.83;51.07
46111;BME280;31849;55.992;37.252;2023-08-08T04:34:05;98310.72;;;24.03;50.56
46111;BME280;31849;55.992;37.252;2023-08-08T04:39:09;98317.59;;;24.05;50.14
46111;BME280;31849;55.992;37.252;2023-08-08T04:44:13;98303.38;;;24.18;49.64
46111;BME280;31849;55.992;37.252;2023-08-08T04:49:17;98320.53;;;24.25;49.92
46111;BME280;31849;55.992;37.252;2023-08-08T04:54:21;98308.09;;;24.37;49.96
46111;BME280;31849;55.992;37.252;2023-08-08T04:59:26;98304.53;;;24.61;49.34
46111;BME280;31849;55.992;37.252;2023-08-08T05:04:30;98305.97;;;24.65;49.75
46111;BME280;31849;55.992;37.252;2023-08-08T05:09:34;98317.69;;;24.85;49.34
46111;BME280;31849;55.992;37.252;2023-08-08T05:14:39;98323.22;;;25.04;48.71
46111;BME280;31849;55.992;37.252;2023-08-08T05:19:42;98327.75;;;25.25;48.19
46111;BME280;31849;55.992;37.252;2023-08-08T05:24:46;98338.75;;;26.08;46.58
46111;BME280;31849;55.992;37.252;2023-08-08T05:29:51;98335.53;;;25.93;47.05
46111;BME280;31849;55.992;37.252;2023-08-08T05:34:54;98329.44;;;25.49;48.03
46111;BME280;31849;55.992;37.252;2023-08-08T05:39:59;98340.38;;;25.99;48.76
46111;BME280;31849;55.992;37.252;2023-08-08T05:45:07;98349.91;;;26.44;47.39
46111;BME280;31849;55.992;37.252;2023-08-08T05:50:11;98330.69;;;27.82;43.66
46111;BME280;31849;55.992;37.252;2023-08-08T05:55:15;98335.75;;;31.38;37.16
46111;BME280;31849;55.992;37.252;2023-08-08T06:00:21;98322.28;;;35.38;30.26
46111;BME280;31849;55.992;37.252;2023-08-08T06:05:25;98333.78;;;38.59;25.34
46111;BME280;31849;55.992;37.252;2023-08-08T06:10:29;98334.94;;;40.13;23.47
46111;BME280;31849;55.992;37.252;2023-08-08T06:15:34;98341.50;;;37.69;25.70
46111;BME280;31849;55.992;37.252;2023-08-08T06:20:38;98339.97;;;36.28;26.86
46111;BME280;31849;55.992;37.252;2023-08-08T06:25:42;98332.84;;;35.03;28.78
46111;BME280;31849;55.992;37.252;2023-08-08T06:30:47;98338.97;;;32.74;32.21
46111;BME280;31849;55.992;37.252;2023-08-08T06:35:52;98346.66;;;30.94;34.86
46111;BME280;31849;55.992;37.252;2023-08-08T06:40:55;98347.41;;;29.81;37.02
46111;BME280;31849;55.992;37.252;2023-08-08T06:46:00;98348.41;;;29.07;38.39
46111;BME280;31849;55.992;37.252;2023-08-08T06:51:04;98340.31;;;28.89;38.61
46111;BME280;31849;55.992;37.252;2023-08-08T06:56:08;98343.41;;;28.47;39.35
46111;BME280;31849;55.992;37.252;2023-08-08T07:01:13;98346.97;;;27.79;41.35
46111;BME280;31849;55.992;37.252;2023-08-08T07:06:17;98348.25;;;27.45;41.74
46111;BME280;31849;55.992;37.252;2023-08-08T07:11:21;98340.50;;;27.52;41.68
46111;BME280;31849;55.992;37.252;2023-08-08T07:16:28;98362.31;;;27.77;41.04
46111;BME280;31849;55.992;37.252;2023-08-08T07:21:32;98367.53;;;28.17;41.22
46111;BME280;31849;55.992;37.252;2023-08-08T07:26:35;98357.00;;;29.38;38.87
46111;BME280;31849;55.992;37.252;2023-08-08T07:31:40;98368.75;;;30.35;36.86
46111;BME280;31849;55.992;37.252;2023-08-08T07:36:44;98373.50;;;29.97;37.62
46111;BME280;31849;55.992;37.252;2023-08-08T07:41:47;98377.25;;;29.41;38.95
46111;BME280;31849;55.992;37.252;2023-08-08T07:46:52;98380.84;;;29.95;38.13
46111;BME280;31849;55.992;37.252;2023-08-08T07:51:56;98389.28;;;32.07;34.79
46111;BME280;31849;55.992;37.252;2023-08-08T07:57:00;98388.63;;;32.38;33.78
46111;BME280;31849;55.992;37.252;2023-08-08T08:02:05;98389.31;;;32.16;34.14
46111;BME280;31849;55.992;37.252;2023-08-08T08:07:09;98390.06;;;31.16;34.90
46111;BME280;31849;55.992;37.252;2023-08-08T08:12:13;98393.78;;;30.97;36.18
46111;BME280;31849;55.992;37.252;2023-08-08T08:17:18;98394.00;;;32.05;34.67
46111;BME280;31849;55.992;37.252;2023-08-08T08:22:22;98392.59;;;33.94;31.29
46111;BME280;31849;55.992;37.252;2023-08-08T08:27:25;98395.34;;;33.23;32.86
46111;BME280;31849;55.992;37.252;2023-08-08T08:32:32;98385.72;;;32.81;33.53
46111;BME280;31849;55.992;37.252;2023-08-08T08:37:36;98402.41;;;32.68;33.48
46111;BME280;31849;55.992;37.252;2023-08-08T08:42:39;98393.66;;;33.54;32.49
46111;BME280;31849;55.992;37.252;2023-08-08T08:47:46;98395.38;;;34.47;30.88
46111;BME280;31849;55.992;37.252;2023-08-08T08:52:53;98400.97;;;34.46;31.40
46111;BME280;31849;55.992;37.252;2023-08-08T08:57:59;98405.00;;;34.04;31.20
46111;BME280;31849;55.992;37.252;2023-08-08T09:03:04;98406.59;;;33.27;32.40
46111;BME280;31849;55.992;37.252;2023-08-08T09:08:08;98409.78;;;32.50;33.95
46111;BME280;31849;55.992;37.252;2023-08-08T09:13:14;98410.47;;;32.27;33.72
46111;BME280;31849;55.992;37.252;2023-08-08T09:18:23;98407.63;;;32.20;34.36
46111;BME280;31849;55.992;37.252;2023-08-08T09:23:27;98404.78;;;31.54;35.74
46111;BME280;31849;55.992;37.252;2023-08-08T09:28:30;98400.25;;;32.31;34.79
46111;BME280;31849;55.992;37.252;2023-08-08T09:33:38;98401.69;;;32.74;33.65
46111;BME280;31849;55.992;37.252;2023-08-08T09:38:42;98410.59;;;31.92;35.02
46111;BME280;31849;55.992;37.252;2023-08-08T09:43:47;98408.66;;;30.83;36.48
46111;BME280;31849;55.992;37.252;2023-08-08T09:48:52;98409.59;;;30.29;37.90
46111;BME280;31849;55.992;37.252;2023-08-08T09:53:57;98421.78;;;30.24;37.62
46111;BME280;31849;55.992;37.252;2023-08-08T09:59:01;98419.41;;;29.39;39.66
46111;BME280;31849;55.992;37.252;2023-08-08T10:04:07;98418.66;;;29.92;38.77
46111;BME280;31849;55.992;37.252;2023-08-08T10:09:12;98420.28;;;30.21;38.40
46111;BME280;31849;55.992;37.252;2023-08-08T10:14:15;98427.69;;;30.27;38.78
46111;BME280;31849;55.992;37.252;2023-08-08T10:19:23;98433.69;;;30.21;37.98
46111;BME280;31849;55.992;37.252;2023-08-08T10:24:33;98437.56;;;30.45;38.21
46111;BME280;31849;55.992;37.252;2023-08-08T10:29:38;98438.72;;;30.60;37.90
46111;BME280;31849;55.992;37.252;2023-08-08T10:34:44;98435.22;;;29.78;39.80
46111;BME280;31849;55.992;37.252;2023-08-08T10:39:53;98442.47;;;30.13;39.00
46111;BME280;31849;55.992;37.252;2023-08-08T10:44:59;98452.94;;;29.71;39.59
46111;BME280;31849;55.992;37.252;2023-08-08T10:50:10;98451.44;;;29.58;39.81
46111;BME280;31849;55.992;37.252;2023-08-08T10:55:18;98470.91;;;29.23;41.16
46111;BME280;31849;55.992;37.252;2023-08-08T11:00:24;98473.63;;;29.03;40.87
46111;BME280;31849;55.992;37.252;2023-08-08T11:05:31;98478.31;;;28.91;41.28
46111;BME280;31849;55.992;37.252;2023-08-08T11:10:35;98484.53;;;28.72;41.33
46111;BME280;31849;55.992;37.252;2023-08-08T11:15:39;98483.03;;;28.60;41.69
46111;BME280;31849;55.992;37.252;2023-08-08T11:20:44;98479.75;;;28.47;42.41
46111;BME280;31849;55.992;37.252;2023-08-08T11:25:48;98473.16;;;28.51;42.64
46111;BME280;31849;55.992;37.252;2023-08-08T11:31:12;98476.94;;;28.48;43.03
46111;BME280;31849;55.992;37.252;2023-08-08T11:36:18;98478.38;;;28.33;43.17
46111;BME280;31849;55.992;37.252;2023-08-08T11:41:23;98472.03;;;28.34;43.00
46111;BME280;31849;55.992;37.252;2023-08-08T11:46:28;98472.41;;;28.88;42.97
46111;BME280;31849;55.992;37.252;2023-08-08T11:51:34;98471.75;;;29.51;41.45
46111;BME280;31849;55.992;37.252;2023-08-08T11:56:38;98470.75;;;29.62;40.77
46111;BME280;31849;55.992;37.252;2023-08-08T12:01:42;98478.03;;;29.42;40.68
46111;BME280;31849;55.992;37.252;2023-08-08T12:06:47;98487.31;;;29.00;41.38
46111;BME280;31849;55.992;37.252;2023-08-08T12:11:51;98483.75;;;29.09;41.21
46111;BME280;31849;55.992;37.252;2023-08-08T12:16:54;98481.63;;;29.13;41.35
46111;BME280;31849;55.992;37.252;2023-08-08T12:22:01;98474.28;;;29.53;40.89
46111;BME280;31849;55.992;37.252;2023-08-08T12:27:05;98465.38;;;29.62;40.62
46111;BME280;31849;55.992;37.252;2023-08-08T12:32:09;98473.03;;;29.75;39.70
46111;BME280;31849;55.992;37.252;2023-08-08T12:37:14;98476.53;;;29.85;40.01
46111;BME280;31849;55.992;37.252;2023-08-08T12:42:17;98475.56;;;29.86;40.34
46111;BME280;31849;55.992;37.252;2023-08-08T12:47:21;98478.78;;;30.08;39.68
46111;BME280;31849;55.992;37.252;2023-08-08T12:52:26;98472.06;;;29.76;39.95
46111;BME280;31849;55.992;37.252;2023-08-08T12:57:30;98480.22;;;29.19;40.74
46111;BME280;31849;55.992;37.252;2023-08-08T13:02:34;98473.91;;;29.10;41.08
46111;BME280;31849;55.992;37.252;2023-08-08T13:07:39;98482.53;;;28.84;42.01
46111;BME280;31849;55.992;37.252;2023-08-08T13:12:42;98476.25;;;28.66;42.22
46111;BME280;31849;55.992;37.252;2023-08-08T13:17:46;98473.69;;;28.93;41.94
46111;BME280;31849;55.992;37.252;2023-08-08T13:22:51;98469.78;;;29.25;41.26
46111;BME280;31849;55.992;37.252;2023-08-08T13:27:55;98469.44;;;29.38;40.89
46111;BME280;31849;55.992;37.252;2023-08-08T13:32:58;98469.59;;;29.37;41.02
46111;BME280;31849;55.992;37.252;2023-08-08T13:38:05;98469.38;;;29.48;40.85
46111;BME280;31849;55.992;37.252;2023-08-08T13:43:10;98474.34;;;29.43;41.59
46111;BME280;31849;55.992;37.252;2023-08-08T13:48:13;98464.28;;;29.17;41.53
46111;BME280;31849;55.992;37.252;2023-08-08T13:53:19;98461.56;;;29.37;41.43
46111;BME280;31849;55.992;37.252;2023-08-08T13:58:22;98453.56;;;29.55;40.18
46111;BME280;31849;55.992;37.252;2023-08-08T14:03:26;98467.13;;;29.53;40.43
46111;BME280;31849;55.992;37.252;2023-08-08T14:08:31;98475.13;;;29.25;41.45
46111;BME280;31849;55.992;37.252;2023-08-08T14:13:35;98473.75;;;29.11;41.98
46111;BME280;31849;55.992;37.252;2023-08-08T14:18:39;98483.22;;;29.06;42.21
46111;BME280;31849;55.992;37.252;2023-08-08T14:23:44;98483.22;;;29.06;42.10
46111;BME280;31849;55.992;37.252;2023-08-08T14:28:49;98487.81;;;29.13;43.22
46111;BME280;31849;55.992;37.252;2023-08-08T14:33:52;98484.56;;;29.20;43.58
46111;BME280;31849;55.992;37.252;2023-08-08T14:38:57;98496.09;;;29.30;43.99
46111;BME280;31849;55.992;37.252;2023-08-08T14:44:01;98484.44;;;29.21;44.21
46111;BME280;31849;55.992;37.252;2023-08-08T14:49:05;98493.78;;;28.98;45.09
46111;BME280;31849;55.992;37.252;2023-08-08T14:54:10;98489.59;;;28.95;45.51
46111;BME280;31849;55.992;37.252;2023-08-08T14:59:14;98493.97;;;28.76;45.34
46111;BME280;31849;55.992;37.252;2023-08-08T15:04:17;98495.09;;;28.15;45.30
46111;BME280;31849;55.992;37.252;2023-08-08T15:09:22;98505.09;;;27.72;46.23
46111;BME280;31849;55.992;37.252;2023-08-08T15:14:26;98516.44;;;27.55;46.80
46111;BME280;31849;55.992;37.252;2023-08-08T15:19:29;98502.19;;;27.45;46.71
46111;BME280;31849;55.992;37.252;2023-08-08T15:24:34;98518.53;;;27.51;46.95
46111;BME280;31849;55.992;37.252;2023-08-08T15:29:38;98506.66;;;27.34;46.75
46111;BME280;31849;55.992;37.252;2023-08-08T15:34:42;98523.84;;;27.20;46.90
46111;BME280;31849;55.992;37.252;2023-08-08T15:39:47;98525.88;;;27.07;47.26
46111;BME280;31849;55.992;37.252;2023-08-08T15:44:51;98534.06;;;26.94;46.93
46111;BME280;31849;55.992;37.252;2023-08-08T15:49:54;98537.13;;;26.90;47.22
46111;BME280;31849;55.992;37.252;2023-08-08T15:54:59;98542.00;;;26.63;47.30
46111;BME280;31849;55.992;37.252;2023-08-08T16:00:05;98552.13;;;26.48;47.21
46111;BME280;31849;55.992;37.252;2023-08-08T16:05:09;98559.44;;;26.35;47.44
46111;BME280;31849;55.992;37.252;2023-08-08T16:10:14;98555.44;;;26.29;47.14
46111;BME280;31849;55.992;37.252;2023-08-08T16:15:18;98551.97;;;25.95;47.88
46111;BME280;31849;55.992;37.252;2023-08-08T16:20:21;98563.59;;;25.83;48.01
46111;BME280;31849;55.992;37.252;2023-08-08T16:25:27;98576.56;;;25.76;47.57
46111;BME280;31849;55.992;37.252;2023-08-08T16:30:31;98576.44;;;25.66;47.83
46111;BME280;31849;55.992;37.252;2023-08-08T16:35:35;98579.59;;;25.60;48.11
46111;BME280;31849;55.992;37.252;2023-08-08T16:40:40;98586.75;;;25.59;47.64
46111;BME280;31849;55.992;37.252;2023-08-08T16:45:44;98596.50;;;25.36;47.97
46111;BME280;31849;55.992;37.252;2023-08-08T16:50:48;98595.38;;;25.27;48.22
46111;BME280;31849;55.992;37.252;2023-08-08T16:55:53;98590.66;;;25.20;47.97
46111;BME280;31849;55.992;37.252;2023-08-08T17:00:57;98604.84;;;24.96;48.61
46111;BME280;31849;55.992;37.252;2023-08-08T17:06:01;98603.63;;;24.89;47.98
46111;BME280;31849;55.992;37.252;2023-08-08T17:11:06;98625.06;;;24.74;48.65
46111;BME280;31849;55.992;37.252;2023-08-08T17:16:09;98625.63;;;24.67;49.02
46111;BME280;31849;55.992;37.252;2023-08-08T17:21:13;98631.72;;;24.56;49.00
46111;BME280;31849;55.992;37.252;2023-08-08T17:26:18;98638.53;;;24.60;49.04
46111;BME280;31849;55.992;37.252;2023-08-08T17:31:22;98641.22;;;24.47;49.20
46111;BME280;31849;55.992;37.252;2023-08-08T17:36:25;98651.38;;;24.53;48.90
46111;BME280;31849;55.992;37.252;2023-08-08T17:41:30;98656.09;;;24.50;49.02
46111;BME280;31849;55.992;37.252;2023-08-08T17:46:34;98656.97;;;24.37;48.88
46111;BME280;31849;55.992;37.252;2023-08-08T17:51:38;98649.16;;;24.23;49.26
46111;BME280;31849;55.992;37.252;2023-08-08T17:56:43;98675.16;;;24.31;49.09
46111;BME280;31849;55.992;37.252;2023-08-08T18:01:46;98680.88;;;24.37;48.75
46111;BME280;31849;55.992;37.252;2023-08-08T18:06:50;98680.03;;;24.37;49.10
46111;BME280;31849;55.992;37.252;2023-08-08T18:11:55;98682.25;;;24.43;49.42
46111;BME280;31849;55.992;37.252;2023-08-08T18:16:59;98672.63;;;24.29;49.06
46111;BME280;31849;55.992;37.252;2023-08-08T18:22:03;98670.56;;;24.33;49.37
46111;BME280;31849;55.992;37.252;2023-08-08T18:27:09;98670.53;;;24.21;49.27
46111;BME280;31849;55.992;37.252;2023-08-08T18:32:13;98673.19;;;23.96;49.47
46111;BME280;31849;55.992;37.252;2023-08-08T18:37:16;98677.22;;;23.88;49.62
46111;BME280;31849;55.992;37.252;2023-08-08T18:42:22;98664.50;;;23.94;48.87
46111;BME280;31849;55.992;37.252;2023-08-08T18:47:25;98673.84;;;23.99;48.76
46111;BME280;31849;55.992;37.252;2023-08-08T18:52:29;98672.75;;;24.02;48.40
46111;BME280;31849;55.992;37.252;2023-08-08T18:57:34;98668.66;;;23.98;48.86
46111;BME280;31849;55.992;37.252;2023-08-08T19:02:38;98681.38;;;23.93;49.00
46111;BME280;31849;55.992;37.252;2023-08-08T19:07:42;98666.31;;;23.93;48.39
46111;BME280;31849;55.992;37.252;2023-08-08T19:12:47;98677.03;;;23.92;48.65
46111;BME280;31849;55.992;37.252;2023-08-08T19:17:50;98680.59;;;23.78;48.68
46111;BME280;31849;55.992;37.252;2023-08-08T19:22:57;98687.63;;;23.66;49.06
46111;BME280;31849;55.992;37.252;2023-08-08T19:28:03;98683.06;;;23.55;49.35
46111;BME280;31849;55.992;37.252;2023-08-08T19:33:07;98680.59;;;23.39;50.22
46111;BME280;31849;55.992;37.252;2023-08-08T19:38:11;98676.53;;;23.33;49.98
46111;BME280;31849;55.992;37.252;2023-08-08T19:43:16;98679.63;;;23.27;49.99
46111;BME280;31849;55.992;37.252;2023-08-08T19:48:20;98672.81;;;23.23;50.31
46111;BME280;31849;55.992;37.252;2023-08-08T19:53:24;98675.47;;;23.23;50.31
46111;BME280;31849;55.992;37.252;2023-08-08T19:58:29;98683.97;;;23.28;50.63
46111;BME280;31849;55.992;37.252;2023-08-08T20:03:32;98688.22;;;23.31;50.53
46111;BME280;31849;55.992;37.252;2023-08-08T20:08:36;98687.47;;;23.29;50.43
46111;BME280;31849;55.992;37.252;2023-08-08T20:13:41;98685.69;;;23.29;50.81
46111;BME280;31849;55.992;37.252;2023-08-08T20:18:44;98689.00;;;23.06;51.18
46111;BME280;31849;55.992;37.252;2023-08-08T20:23:48;98690.09;;;22.89;51.30
46111;BME280;31849;55.992;37.252;2023-08-08T20:28:53;98680.09;;;22.79;51.57
46111;BME280;31849;55.992;37.252;2023-08-08T20:33:57;98683.84;;;22.62;51.95
46111;BME280;31849;55.992;37.252;2023-08-08T20:39:00;98669.97;;;22.44;52.15
46111;BME280;31849;55.992;37.252;2023-08-08T20:44:07;98658.53;;;22.29;52.68
46111;BME280;31849;55.992;37.252;2023-08-08T20:49:11;98673.97;;;22.08;53.02
46111;BME280;31849;55.992;37.252;2023-08-08T20:54:14;98671.06;;;21.99;53.29
46111;BME280;31849;55.992;37.252;2023-08-08T20:59:19;98666.72;;;21.98;53.36
46111;BME280;31849;55.992;37.252;2023-08-08T21:04:23;98666.31;;;22.04;53.35
46111;BME280;31849;55.992;37.252;2023-08-08T21:09:44;98680.59;;;22.16;53.29
46111;BME280;31849;55.992;37.252;2023-08-08T21:14:49;98676.13;;;22.16;53.23
46111;BME280;31849;55.992;37.252;2023-08-08T21:19:53;98681.34;;;22.03;53.49
46111;BME280;31849;55.992;37.252;2023-08-08T21:24:56;98680.69;;;22.00;53.38
46111;BME280;31849;55.992;37.252;2023-08-08T21:30:01;98678.03;;;22.00;53.52
46111;BME280;31849;55.992;37.252;2023-08-08T21:35:08;98674.53;;;21.99;53.48
46111;BME280;31849;55.992;37.252;2023-08-08T21:40:12;98678.59;;;21.90;53.72
46111;BME280;31849;55.992;37.252;2023-08-08T21:45:17;98675.13;;;21.90;53.81
46111;BME280;31849;55.992;37.252;2023-08-08T21:50:20;98669.84;;;21.90;53.92
46111;BME280;31849;55.992;37.252;2023-08-08T21:55:24;98672.56;;;21.88;53.64
46111;BME280;31849;55.992;37.252;2023-08-08T22:00:29;98668.88;;;21.91;53.85
46111;BME280;31849;55.992;37.252;2023-08-08T22:05:33;98672.75;;;21.85;53.90
46111;BME280;31849;55.992;37.252;2023-08-08T22:10:36;98673.78;;;21.83;53.81
46111;BME280;31849;55.992;37.252;2023-08-08T22:15:42;98673.22;;;21.77;53.93
46111;BME280;31849;55.992;37.252;2023-08-08T22:20:46;98666.16;;;21.78;54.11
46111;BME280;31849;55.992;37.252;2023-08-08T22:25:50;98669.91;;;21.74;54.04
46111;BME280;31849;55.992;37.252;2023-08-08T22:30:55;98667.81;;;21.79;53.97
46111;BME280;31849;55.992;37.252;2023-08-08T22:35:59;98647.50;;;21.65;53.89
46111;BME280;31849;55.992;37.252;2023-08-08T22:41:02;98653.75;;;21.64;54.16
46111;BME280;31849;55.992;37.252;2023-08-08T22:46:08;98660.34;;;21.57;54.36
46111;BME280;31849;55.992;37.252;2023-08-08T22:51:11;98651.13;;;21.34;54.81
46111;BME280;31849;55.992;37.252;2023-08-08T22:56:15;98660.22;;;21.14;55.23
46111;BME280;31849;55.992;37.252;2023-08-08T23:01:20;98667.00;;;21.03;55.48
46111;BME280;31849;55.992;37.252;2023-08-08T23:06:23;98673.00;;;20.91;56.09
46111;BME280;31849;55.992;37.252;2023-08-08T23:11:27;98660.97;;;20.85;56.25
46111;BME280;31849;55.992;37.252;2023-08-08T23:16:32;98656.69;;;20.68;56.73
46111;BME280;31849;55.992;37.252;2023-08-08T23:21:35;98669.31;;;20.62;56.87
46111;BME280;31849;55.992;37.252;2023-08-08T23:26:39;98666.28;;;20.53;57.03
46111;BME280;31849;55.992;37.252;2023-08-08T23:31:44;98659.63;;;20.46;57.73
46111;BME280;31849;55.992;37.252;2023-08-08T23:36:47;98658.28;;;20.39;58.14
46111;BME280;31849;55.992;37.252;2023-08-08T23:41:51;98652.72;;;20.60;57.32
46111;BME280;31849;55.992;37.252;2023-08-08T23:46:56;98660.22;;;20.83;56.84
46111;BME280;31849;55.992;37.252;2023-08-08T23:51:59;98649.56;;;20.85;56.51
46111;BME280;31849;55.992;37.252;2023-08-08T23:57:04;98644.53;;;20.96;56.23
